Adrian, Washington
Current Conditions -  °F | °C
As of 2:53 AM on Monday 22 Dec 2014 (Local Time) from KEPH Reporting Station
Clear Clear  
Wind Chill: 25°   Ceiling: Unl
Heat Index: 34°   Visibility: 10mi
Dew Point: 31°   Wind: 13mph
Humidity: 89%   Direction: 230°SW
Pressure: 30.03"   Gusts: NA
Location:  47.4314°N, 119.485°W
Report Text: KEPH 221053Z AUTO 23011KT 10SM CLR 01/M01 A3003 RMK AO2 SLP175 T00111006
Loading
Personal Weather Stations






























Interactive Weather Map New forecast layout! Learn more

10-Day Weather Forecast

Advertisements
Track Severe Weather on mobile